sensor_id;sensor_type;location;lat;lon;timestamp;temperature;humidity
25906;DHT22;13713;52.552;13.204;2023-07-16T00:01:00;26.30;56.00
25906;DHT22;13713;52.552;13.204;2023-07-16T00:03:52;26.30;56.00
25906;DHT22;13713;52.552;13.204;2023-07-16T00:06:23;26.30;56.00
25906;DHT22;13713;52.552;13.204;2023-07-16T00:09:21;26.30;56.00
25906;DHT22;13713;52.552;13.204;2023-07-16T00:11:58;26.30;56.00
25906;DHT22;13713;52.552;13.204;2023-07-16T00:14:36;26.30;56.10
25906;DHT22;13713;52.552;13.204;2023-07-16T00:17:15;26.30;56.00
25906;DHT22;13713;52.552;13.204;2023-07-16T00:20:32;26.30;56.00
25906;DHT22;13713;52.552;13.204;2023-07-16T00:23:19;26.30;56.10
25906;DHT22;13713;52.552;13.204;2023-07-16T00:25:54;26.30;56.10
25906;DHT22;13713;52.552;13.204;2023-07-16T00:28:27;26.30;56.10
25906;DHT22;13713;52.552;13.204;2023-07-16T00:31:30;26.30;56.10
25906;DHT22;13713;52.552;13.204;2023-07-16T00:33:58;26.30;56.20
25906;DHT22;13713;52.552;13.204;2023-07-16T00:36:30;26.20;56.10
25906;DHT22;13713;52.552;13.204;2023-07-16T00:39:02;26.30;56.20
25906;DHT22;13713;52.552;13.204;2023-07-16T00:41:34;26.30;56.20
25906;DHT22;13713;52.552;13.204;2023-07-16T00:44:04;26.30;56.20
25906;DHT22;13713;52.552;13.204;2023-07-16T00:46:30;26.30;56.20
25906;DHT22;13713;52.552;13.204;2023-07-16T00:48:56;26.30;56.20
25906;DHT22;13713;52.552;13.204;2023-07-16T00:51:22;26.30;56.30
25906;DHT22;13713;52.552;13.204;2023-07-16T00:53:49;26.30;56.30
25906;DHT22;13713;52.552;13.204;2023-07-16T00:56:16;26.30;56.30
25906;DHT22;13713;52.552;13.204;2023-07-16T00:58:43;26.30;56.30
25906;DHT22;13713;52.552;13.204;2023-07-16T01:01:09;26.30;56.30
25906;DHT22;13713;52.552;13.204;2023-07-16T01:03:35;26.20;56.20
25906;DHT22;13713;52.552;13.204;2023-07-16T01:06:13;26.30;56.30
25906;DHT22;13713;52.552;13.204;2023-07-16T01:08:53;26.30;56.30
25906;DHT22;13713;52.552;13.204;2023-07-16T01:11:21;26.30;56.30
25906;DHT22;13713;52.552;13.204;2023-07-16T01:13:47;26.20;56.30
25906;DHT22;13713;52.552;13.204;2023-07-16T01:16:19;26.30;56.30
25906;DHT22;13713;52.552;13.204;2023-07-16T01:18:46;26.30;56.30
25906;DHT22;13713;52.552;13.204;2023-07-16T01:21:11;26.20;56.30
25906;DHT22;13713;52.552;13.204;2023-07-16T01:31:50;26.20;56.30
25906;DHT22;13713;52.552;13.204;2023-07-16T01:34:16;26.20;56.40
25906;DHT22;13713;52.552;13.204;2023-07-16T01:36:43;26.30;56.50
25906;DHT22;13713;52.552;13.204;2023-07-16T01:39:09;26.20;56.40
25906;DHT22;13713;52.552;13.204;2023-07-16T01:41:35;26.30;56.60
25906;DHT22;13713;52.552;13.204;2023-07-16T01:44:00;26.30;56.70
25906;DHT22;13713;52.552;13.204;2023-07-16T01:46:26;26.20;56.60
25906;DHT22;13713;52.552;13.204;2023-07-16T01:48:52;26.30;56.80
25906;DHT22;13713;52.552;13.204;2023-07-16T01:51:17;26.20;56.70
25906;DHT22;13713;52.552;13.204;2023-07-16T01:53:45;26.30;56.80
25906;DHT22;13713;52.552;13.204;2023-07-16T01:56:11;26.30;56.80
25906;DHT22;13713;52.552;13.204;2023-07-16T01:58:36;26.30;56.90
25906;DHT22;13713;52.552;13.204;2023-07-16T02:01:02;26.30;56.90
25906;DHT22;13713;52.552;13.204;2023-07-16T02:03:27;26.30;57.00
25906;DHT22;13713;52.552;13.204;2023-07-16T02:05:53;26.20;56.90
25906;DHT22;13713;52.552;13.204;2023-07-16T02:08:18;26.20;57.00
25906;DHT22;13713;52.552;13.204;2023-07-16T02:10:44;26.30;57.10
25906;DHT22;13713;52.552;13.204;2023-07-16T02:13:10;26.30;57.10
25906;DHT22;13713;52.552;13.204;2023-07-16T02:15:36;26.30;57.20
25906;DHT22;13713;52.552;13.204;2023-07-16T02:18:03;26.20;57.20
25906;DHT22;13713;52.552;13.204;2023-07-16T02:20:29;26.30;57.20
25906;DHT22;13713;52.552;13.204;2023-07-16T02:22:54;26.30;57.30
25906;DHT22;13713;52.552;13.204;2023-07-16T02:25:20;26.20;57.20
25906;DHT22;13713;52.552;13.204;2023-07-16T02:27:47;26.20;57.30
25906;DHT22;13713;52.552;13.204;2023-07-16T02:30:13;26.20;57.30
25906;DHT22;13713;52.552;13.204;2023-07-16T02:32:42;26.20;57.30
25906;DHT22;13713;52.552;13.204;2023-07-16T02:35:07;26.30;57.40
25906;DHT22;13713;52.552;13.204;2023-07-16T02:37:33;26.20;57.30
25906;DHT22;13713;52.552;13.204;2023-07-16T02:39:59;26.20;57.30
25906;DHT22;13713;52.552;13.204;2023-07-16T02:42:24;26.20;57.40
25906;DHT22;13713;52.552;13.204;2023-07-16T02:44:50;26.20;57.40
25906;DHT22;13713;52.552;13.204;2023-07-16T02:47:16;26.20;57.40
25906;DHT22;13713;52.552;13.204;2023-07-16T02:49:41;26.20;57.50
25906;DHT22;13713;52.552;13.204;2023-07-16T02:52:07;26.20;57.40
25906;DHT22;13713;52.552;13.204;2023-07-16T02:54:33;26.30;57.50
25906;DHT22;13713;52.552;13.204;2023-07-16T02:57:00;26.20;57.50
25906;DHT22;13713;52.552;13.204;2023-07-16T02:59:26;26.20;57.50
25906;DHT22;13713;52.552;13.204;2023-07-16T03:01:51;26.20;57.50
25906;DHT22;13713;52.552;13.204;2023-07-16T03:04:17;26.20;57.50
25906;DHT22;13713;52.552;13.204;2023-07-16T03:06:43;26.20;57.60
25906;DHT22;13713;52.552;13.204;2023-07-16T03:09:08;26.20;57.60
25906;DHT22;13713;52.552;13.204;2023-07-16T03:11:34;26.20;57.60
25906;DHT22;13713;52.552;13.204;2023-07-16T03:14:00;26.20;57.60
25906;DHT22;13713;52.552;13.204;2023-07-16T03:16:25;26.20;57.60
25906;DHT22;13713;52.552;13.204;2023-07-16T03:18:51;26.20;57.70
25906;DHT22;13713;52.552;13.204;2023-07-16T03:21:16;26.20;57.60
25906;DHT22;13713;52.552;13.204;2023-07-16T03:23:43;26.20;57.70
25906;DHT22;13713;52.552;13.204;2023-07-16T03:26:08;26.20;57.70
25906;DHT22;13713;52.552;13.204;2023-07-16T03:28:34;26.20;57.70
25906;DHT22;13713;52.552;13.204;2023-07-16T03:31:03;26.30;57.80
25906;DHT22;13713;52.552;13.204;2023-07-16T03:33:30;26.20;57.80
25906;DHT22;13713;52.552;13.204;2023-07-16T03:35:56;26.20;57.80
25906;DHT22;13713;52.552;13.204;2023-07-16T03:38:21;26.20;57.80
25906;DHT22;13713;52.552;13.204;2023-07-16T03:40:47;26.20;57.80
25906;DHT22;13713;52.552;13.204;2023-07-16T03:43:13;26.20;57.90
25906;DHT22;13713;52.552;13.204;2023-07-16T03:45:39;26.20;57.90
25906;DHT22;13713;52.552;13.204;2023-07-16T03:48:05;26.20;58.00
25906;DHT22;13713;52.552;13.204;2023-07-16T03:50:31;26.20;57.90
25906;DHT22;13713;52.552;13.204;2023-07-16T03:52:56;26.20;58.00
25906;DHT22;13713;52.552;13.204;2023-07-16T03:55:22;26.20;57.90
25906;DHT22;13713;52.552;13.204;2023-07-16T03:57:49;26.20;58.00
25906;DHT22;13713;52.552;13.204;2023-07-16T04:00:14;26.20;58.00
25906;DHT22;13713;52.552;13.204;2023-07-16T04:02:40;26.20;58.00
25906;DHT22;13713;52.552;13.204;2023-07-16T04:05:07;26.20;58.10
25906;DHT22;13713;52.552;13.204;2023-07-16T04:07:33;26.20;58.00
25906;DHT22;13713;52.552;13.204;2023-07-16T04:09:59;26.20;58.10
25906;DHT22;13713;52.552;13.204;2023-07-16T04:12:24;26.20;58.10
25906;DHT22;13713;52.552;13.204;2023-07-16T04:14:56;26.20;58.10
25906;DHT22;13713;52.552;13.204;2023-07-16T04:17:22;26.20;58.20
25906;DHT22;13713;52.552;13.204;2023-07-16T04:19:48;26.20;58.10
25906;DHT22;13713;52.552;13.204;2023-07-16T04:22:13;26.20;58.20
25906;DHT22;13713;52.552;13.204;2023-07-16T04:24:39;26.20;58.20
25906;DHT22;13713;52.552;13.204;2023-07-16T04:27:05;26.20;58.30
25906;DHT22;13713;52.552;13.204;2023-07-16T04:29:30;26.20;58.20
25906;DHT22;13713;52.552;13.204;2023-07-16T04:31:56;26.20;58.20
25906;DHT22;13713;52.552;13.204;2023-07-16T04:34:21;26.20;58.30
25906;DHT22;13713;52.552;13.204;2023-07-16T04:36:47;26.20;58.30
25906;DHT22;13713;52.552;13.204;2023-07-16T04:39:13;26.20;58.40
25906;DHT22;13713;52.552;13.204;2023-07-16T04:41:38;26.20;58.40
25906;DHT22;13713;52.552;13.204;2023-07-16T04:44:04;26.20;58.30
25906;DHT22;13713;52.552;13.204;2023-07-16T04:46:30;26.20;58.40
25906;DHT22;13713;52.552;13.204;2023-07-16T04:48:56;26.20;58.40
25906;DHT22;13713;52.552;13.204;2023-07-16T04:51:21;26.20;58.40
25906;DHT22;13713;52.552;13.204;2023-07-16T04:53:47;26.20;58.40
25906;DHT22;13713;52.552;13.204;2023-07-16T04:56:13;26.20;58.40
25906;DHT22;13713;52.552;13.204;2023-07-16T04:58:39;26.20;58.50
25906;DHT22;13713;52.552;13.204;2023-07-16T05:01:05;26.20;58.50
25906;DHT22;13713;52.552;13.204;2023-07-16T05:03:30;26.20;58.50
25906;DHT22;13713;52.552;13.204;2023-07-16T05:05:56;26.20;58.50
25906;DHT22;13713;52.552;13.204;2023-07-16T05:08:21;26.20;58.60
25906;DHT22;13713;52.552;13.204;2023-07-16T05:10:47;26.20;58.50
25906;DHT22;13713;52.552;13.204;2023-07-16T05:13:12;26.20;58.60
25906;DHT22;13713;52.552;13.204;2023-07-16T05:15:38;26.20;58.60
25906;DHT22;13713;52.552;13.204;2023-07-16T05:18:04;26.20;58.70
25906;DHT22;13713;52.552;13.204;2023-07-16T05:20:29;26.20;58.60
25906;DHT22;13713;52.552;13.204;2023-07-16T05:22:55;26.20;58.70
25906;DHT22;13713;52.552;13.204;2023-07-16T05:25:20;26.20;58.70
25906;DHT22;13713;52.552;13.204;2023-07-16T05:27:46;26.20;58.70
25906;DHT22;13713;52.552;13.204;2023-07-16T05:30:12;26.20;58.80
25906;DHT22;13713;52.552;13.204;2023-07-16T05:32:38;26.20;58.80
25906;DHT22;13713;52.552;13.204;2023-07-16T05:35:04;26.20;58.90
25906;DHT22;13713;52.552;13.204;2023-07-16T05:37:29;26.20;58.90
25906;DHT22;13713;52.552;13.204;2023-07-16T05:39:55;26.20;58.80
25906;DHT22;13713;52.552;13.204;2023-07-16T05:42:20;26.20;58.90
25906;DHT22;13713;52.552;13.204;2023-07-16T05:44:49;26.20;58.90
25906;DHT22;13713;52.552;13.204;2023-07-16T05:47:15;26.20;59.00
25906;DHT22;13713;52.552;13.204;2023-07-16T05:49:40;26.20;59.00
25906;DHT22;13713;52.552;13.204;2023-07-16T05:52:06;26.20;59.00
25906;DHT22;13713;52.552;13.204;2023-07-16T05:54:31;26.20;59.10
25906;DHT22;13713;52.552;13.204;2023-07-16T05:56:57;26.20;59.00
25906;DHT22;13713;52.552;13.204;2023-07-16T05:59:23;26.20;59.10
25906;DHT22;13713;52.552;13.204;2023-07-16T06:01:48;26.20;59.10
25906;DHT22;13713;52.552;13.204;2023-07-16T06:04:14;26.20;59.00
25906;DHT22;13713;52.552;13.204;2023-07-16T06:06:39;26.20;59.00
25906;DHT22;13713;52.552;13.204;2023-07-16T06:09:05;26.30;59.00
25906;DHT22;13713;52.552;13.204;2023-07-16T06:11:31;26.30;59.00
25906;DHT22;13713;52.552;13.204;2023-07-16T06:13:56;26.30;59.10
25906;DHT22;13713;52.552;13.204;2023-07-16T06:16:22;26.30;59.10
25906;DHT22;13713;52.552;13.204;2023-07-16T06:18:47;26.30;59.00
25906;DHT22;13713;52.552;13.204;2023-07-16T06:21:13;26.30;59.00
25906;DHT22;13713;52.552;13.204;2023-07-16T06:23:39;26.30;59.00
25906;DHT22;13713;52.552;13.204;2023-07-16T06:26:05;26.40;59.00
25906;DHT22;13713;52.552;13.204;2023-07-16T06:28:30;26.40;59.00
25906;DHT22;13713;52.552;13.204;2023-07-16T06:30:56;26.40;59.00
25906;DHT22;13713;52.552;13.204;2023-07-16T06:33:22;26.40;58.90
25906;DHT22;13713;52.552;13.204;2023-07-16T06:35:47;26.40;58.90
25906;DHT22;13713;52.552;13.204;2023-07-16T06:38:13;26.40;58.80
25906;DHT22;13713;52.552;13.204;2023-07-16T06:40:40;26.50;59.20
25906;DHT22;13713;52.552;13.204;2023-07-16T06:43:05;26.50;58.90
25906;DHT22;13713;52.552;13.204;2023-07-16T06:45:31;26.50;58.90
25906;DHT22;13713;52.552;13.204;2023-07-16T06:47:56;26.50;58.80
25906;DHT22;13713;52.552;13.204;2023-07-16T06:50:22;26.50;58.80
25906;DHT22;13713;52.552;13.204;2023-07-16T06:52:48;26.50;58.80
25906;DHT22;13713;52.552;13.204;2023-07-16T06:55:13;26.50;58.80
25906;DHT22;13713;52.552;13.204;2023-07-16T06:57:39;26.50;58.80
25906;DHT22;13713;52.552;13.204;2023-07-16T07:00:05;26.50;58.80
25906;DHT22;13713;52.552;13.204;2023-07-16T07:02:31;26.50;58.80
25906;DHT22;13713;52.552;13.204;2023-07-16T07:04:57;26.50;58.80
25906;DHT22;13713;52.552;13.204;2023-07-16T07:07:23;26.50;58.80
25906;DHT22;13713;52.552;13.204;2023-07-16T07:09:49;26.50;58.90
25906;DHT22;13713;52.552;13.204;2023-07-16T07:12:15;26.50;58.80
25906;DHT22;13713;52.552;13.204;2023-07-16T07:14:40;26.50;58.90
25906;DHT22;13713;52.552;13.204;2023-07-16T07:17:06;26.50;58.90
25906;DHT22;13713;52.552;13.204;2023-07-16T07:19:31;26.50;59.00
25906;DHT22;13713;52.552;13.204;2023-07-16T07:21:57;26.50;59.00
25906;DHT22;13713;52.552;13.204;2023-07-16T07:24:23;26.50;59.00
25906;DHT22;13713;52.552;13.204;2023-07-16T07:26:49;26.50;59.00
25906;DHT22;13713;52.552;13.204;2023-07-16T07:29:14;26.50;59.00
25906;DHT22;13713;52.552;13.204;2023-07-16T07:31:40;26.50;59.10
25906;DHT22;13713;52.552;13.204;2023-07-16T07:34:05;26.50;59.10
25906;DHT22;13713;52.552;13.204;2023-07-16T07:36:31;26.50;59.20
25906;DHT22;13713;52.552;13.204;2023-07-16T07:38:56;26.50;59.20
25906;DHT22;13713;52.552;13.204;2023-07-16T07:41:22;26.50;59.20
25906;DHT22;13713;52.552;13.204;2023-07-16T07:43:48;26.50;59.20
25906;DHT22;13713;52.552;13.204;2023-07-16T07:46:13;26.50;59.10
25906;DHT22;13713;52.552;13.204;2023-07-16T07:48:39;26.50;59.20
25906;DHT22;13713;52.552;13.204;2023-07-16T07:51:05;26.50;59.20
25906;DHT22;13713;52.552;13.204;2023-07-16T07:53:30;26.50;59.20
25906;DHT22;13713;52.552;13.204;2023-07-16T07:55:56;26.50;59.30
25906;DHT22;13713;52.552;13.204;2023-07-16T07:58:22;26.50;59.20
25906;DHT22;13713;52.552;13.204;2023-07-16T08:00:48;26.50;59.20
25906;DHT22;13713;52.552;13.204;2023-07-16T08:03:14;26.50;59.30
25906;DHT22;13713;52.552;13.204;2023-07-16T08:05:39;26.50;59.30
25906;DHT22;13713;52.552;13.204;2023-07-16T08:08:05;26.50;59.30
25906;DHT22;13713;52.552;13.204;2023-07-16T08:10:30;26.50;59.30
25906;DHT22;13713;52.552;13.204;2023-07-16T08:12:56;26.50;59.30
25906;DHT22;13713;52.552;13.204;2023-07-16T08:15:22;26.50;59.30
25906;DHT22;13713;52.552;13.204;2023-07-16T08:17:47;26.50;59.30
25906;DHT22;13713;52.552;13.204;2023-07-16T08:20:13;26.50;59.30
25906;DHT22;13713;52.552;13.204;2023-07-16T08:22:41;26.50;59.30
25906;DHT22;13713;52.552;13.204;2023-07-16T08:25:07;26.50;59.30
25906;DHT22;13713;52.552;13.204;2023-07-16T08:27:33;26.50;59.30
25906;DHT22;13713;52.552;13.204;2023-07-16T08:29:59;26.50;59.20
25906;DHT22;13713;52.552;13.204;2023-07-16T08:32:25;26.50;59.20
25906;DHT22;13713;52.552;13.204;2023-07-16T08:34:50;26.50;59.20
25906;DHT22;13713;52.552;13.204;2023-07-16T08:37:18;26.50;59.20
25906;DHT22;13713;52.552;13.204;2023-07-16T08:39:43;26.50;59.80
25906;DHT22;13713;52.552;13.204;2023-07-16T08:42:09;26.50;59.20
25906;DHT22;13713;52.552;13.204;2023-07-16T08:44:36;26.50;59.10
25906;DHT22;13713;52.552;13.204;2023-07-16T08:47:02;26.50;59.10
25906;DHT22;13713;52.552;13.204;2023-07-16T08:49:29;26.60;59.20
25906;DHT22;13713;52.552;13.204;2023-07-16T08:51:55;26.50;59.10
25906;DHT22;13713;52.552;13.204;2023-07-16T08:54:21;26.50;59.10
25906;DHT22;13713;52.552;13.204;2023-07-16T08:56:47;26.50;59.10
25906;DHT22;13713;52.552;13.204;2023-07-16T08:59:13;26.50;59.10
25906;DHT22;13713;52.552;13.204;2023-07-16T09:01:39;26.50;59.10
25906;DHT22;13713;52.552;13.204;2023-07-16T09:04:05;26.50;59.10
25906;DHT22;13713;52.552;13.204;2023-07-16T09:06:30;26.50;59.10
25906;DHT22;13713;52.552;13.204;2023-07-16T09:08:56;26.50;59.10
25906;DHT22;13713;52.552;13.204;2023-07-16T09:11:22;26.50;59.10
25906;DHT22;13713;52.552;13.204;2023-07-16T09:13:48;26.50;59.10
25906;DHT22;13713;52.552;13.204;2023-07-16T09:16:13;26.50;59.10
25906;DHT22;13713;52.552;13.204;2023-07-16T09:18:41;26.50;59.10
25906;DHT22;13713;52.552;13.204;2023-07-16T09:21:07;26.50;59.10
25906;DHT22;13713;52.552;13.204;2023-07-16T09:23:33;26.50;59.10
25906;DHT22;13713;52.552;13.204;2023-07-16T09:25:59;26.50;59.00
25906;DHT22;13713;52.552;13.204;2023-07-16T09:28:24;26.50;59.00
25906;DHT22;13713;52.552;13.204;2023-07-16T09:30:50;26.50;59.00
25906;DHT22;13713;52.552;13.204;2023-07-16T09:33:17;26.50;59.00
25906;DHT22;13713;52.552;13.204;2023-07-16T09:35:43;26.50;59.00
25906;DHT22;13713;52.552;13.204;2023-07-16T09:38:09;26.50;59.00
25906;DHT22;13713;52.552;13.204;2023-07-16T09:40:36;26.50;59.00
25906;DHT22;13713;52.552;13.204;2023-07-16T09:43:01;26.50;58.90
25906;DHT22;13713;52.552;13.204;2023-07-16T09:45:27;26.50;58.90
25906;DHT22;13713;52.552;13.204;2023-07-16T09:47:53;26.50;58.90
25906;DHT22;13713;52.552;13.204;2023-07-16T09:50:19;26.50;58.90
25906;DHT22;13713;52.552;13.204;2023-07-16T09:52:45;26.50;58.80
25906;DHT22;13713;52.552;13.204;2023-07-16T09:55:12;26.50;58.80
25906;DHT22;13713;52.552;13.204;2023-07-16T09:57:39;26.60;58.90
25906;DHT22;13713;52.552;13.204;2023-07-16T10:00:06;26.60;58.90
25906;DHT22;13713;52.552;13.204;2023-07-16T10:02:38;26.50;58.80
25906;DHT22;13713;52.552;13.204;2023-07-16T10:05:23;26.50;58.80
25906;DHT22;13713;52.552;13.204;2023-07-16T10:07:51;26.60;58.80
25906;DHT22;13713;52.552;13.204;2023-07-16T10:10:17;26.60;58.80
25906;DHT22;13713;52.552;13.204;2023-07-16T10:12:43;26.50;58.80
25906;DHT22;13713;52.552;13.204;2023-07-16T10:15:24;26.50;58.70
25906;DHT22;13713;52.552;13.204;2023-07-16T10:17:50;26.50;58.70
25906;DHT22;13713;52.552;13.204;2023-07-16T10:20:16;26.50;58.70
25906;DHT22;13713;52.552;13.204;2023-07-16T10:22:46;26.50;58.70
25906;DHT22;13713;52.552;13.204;2023-07-16T10:27:44;26.50;58.70
25906;DHT22;13713;52.552;13.204;2023-07-16T10:30:10;26.60;58.70
25906;DHT22;13713;52.552;13.204;2023-07-16T10:32:36;26.50;58.70
25906;DHT22;13713;52.552;13.204;2023-07-16T10:35:02;26.50;58.70
25906;DHT22;13713;52.552;13.204;2023-07-16T10:37:28;26.50;58.70
25906;DHT22;13713;52.552;13.204;2023-07-16T10:39:54;26.60;58.70
25906;DHT22;13713;52.552;13.204;2023-07-16T10:42:20;26.50;58.60
25906;DHT22;13713;52.552;13.204;2023-07-16T10:44:48;26.60;58.70
25906;DHT22;13713;52.552;13.204;2023-07-16T10:47:22;26.60;58.70
25906;DHT22;13713;52.552;13.204;2023-07-16T10:49:49;26.60;58.70
25906;DHT22;13713;52.552;13.204;2023-07-16T10:52:14;26.60;58.70
25906;DHT22;13713;52.552;13.204;2023-07-16T10:54:40;26.50;58.50
25906;DHT22;13713;52.552;13.204;2023-07-16T10:57:06;26.60;58.60
25906;DHT22;13713;52.552;13.204;2023-07-16T10:59:32;26.60;58.60
25906;DHT22;13713;52.552;13.204;2023-07-16T11:01:57;26.60;58.50
25906;DHT22;13713;52.552;13.204;2023-07-16T11:04:23;26.60;58.60
25906;DHT22;13713;52.552;13.204;2023-07-16T11:06:52;26.50;58.50
25906;DHT22;13713;52.552;13.204;2023-07-16T11:09:17;26.60;58.60
25906;DHT22;13713;52.552;13.204;2023-07-16T11:11:43;26.60;58.60
25906;DHT22;13713;52.552;13.204;2023-07-16T11:14:08;26.60;58.50
25906;DHT22;13713;52.552;13.204;2023-07-16T11:16:35;26.60;58.50
25906;DHT22;13713;52.552;13.204;2023-07-16T11:19:02;26.60;58.50
25906;DHT22;13713;52.552;13.204;2023-07-16T11:21:27;26.60;58.50
25906;DHT22;13713;52.552;13.204;2023-07-16T11:23:53;26.60;58.50
25906;DHT22;13713;52.552;13.204;2023-07-16T11:26:19;26.60;58.50
25906;DHT22;13713;52.552;13.204;2023-07-16T11:28:44;26.60;58.50
25906;DHT22;13713;52.552;13.204;2023-07-16T11:31:11;26.60;58.50
25906;DHT22;13713;52.552;13.204;2023-07-16T11:33:37;26.60;58.50
25906;DHT22;13713;52.552;13.204;2023-07-16T11:36:03;26.60;58.40
25906;DHT22;13713;52.552;13.204;2023-07-16T11:38:29;26.60;58.40
25906;DHT22;13713;52.552;13.204;2023-07-16T11:40:55;26.60;58.40
25906;DHT22;13713;52.552;13.204;2023-07-16T11:43:20;26.60;58.40
25906;DHT22;13713;52.552;13.204;2023-07-16T11:45:49;26.60;58.40
25906;DHT22;13713;52.552;13.204;2023-07-16T11:48:15;26.60;58.40
25906;DHT22;13713;52.552;13.204;2023-07-16T11:50:40;26.60;58.40
25906;DHT22;13713;52.552;13.204;2023-07-16T11:53:06;26.60;58.40
25906;DHT22;13713;52.552;13.204;2023-07-16T11:55:31;26.60;58.40
25906;DHT22;13713;52.552;13.204;2023-07-16T11:57:57;26.60;58.40
25906;DHT22;13713;52.552;13.204;2023-07-16T12:00:24;26.60;58.40
25906;DHT22;13713;52.552;13.204;2023-07-16T12:02:50;26.60;58.40
25906;DHT22;13713;52.552;13.204;2023-07-16T12:05:22;26.60;58.30
25906;DHT22;13713;52.552;13.204;2023-07-16T12:07:49;26.60;58.30
25906;DHT22;13713;52.552;13.204;2023-07-16T12:10:15;26.60;58.30
25906;DHT22;13713;52.552;13.204;2023-07-16T12:12:41;26.60;58.30
25906;DHT22;13713;52.552;13.204;2023-07-16T12:15:07;26.60;58.30
25906;DHT22;13713;52.552;13.204;2023-07-16T12:17:33;26.60;58.30
25906;DHT22;13713;52.552;13.204;2023-07-16T12:19:59;26.60;58.20
25906;DHT22;13713;52.552;13.204;2023-07-16T12:22:25;26.60;58.80
25906;DHT22;13713;52.552;13.204;2023-07-16T12:24:50;26.60;58.20
25906;DHT22;13713;52.552;13.204;2023-07-16T12:27:17;26.60;58.20
25906;DHT22;13713;52.552;13.204;2023-07-16T12:29:43;26.60;58.80
25906;DHT22;13713;52.552;13.204;2023-07-16T12:32:09;26.60;58.20
25906;DHT22;13713;52.552;13.204;2023-07-16T12:34:34;26.60;58.10
25906;DHT22;13713;52.552;13.204;2023-07-16T12:37:00;26.60;58.10
25906;DHT22;13713;52.552;13.204;2023-07-16T12:39:26;26.60;58.00
25906;DHT22;13713;52.552;13.204;2023-07-16T12:41:51;26.60;58.00
25906;DHT22;13713;52.552;13.204;2023-07-16T12:44:17;26.60;58.00
25906;DHT22;13713;52.552;13.204;2023-07-16T12:46:42;26.60;57.90
25906;DHT22;13713;52.552;13.204;2023-07-16T12:49:08;26.60;57.90
25906;DHT22;13713;52.552;13.204;2023-07-16T12:51:33;26.60;57.90
25906;DHT22;13713;52.552;13.204;2023-07-16T12:53:59;26.60;57.90
25906;DHT22;13713;52.552;13.204;2023-07-16T12:56:26;26.60;57.80
25906;DHT22;13713;52.552;13.204;2023-07-16T12:58:52;26.60;57.80
25906;DHT22;13713;52.552;13.204;2023-07-16T13:01:18;26.60;57.80
25906;DHT22;13713;52.552;13.204;2023-07-16T13:03:43;26.60;57.80
25906;DHT22;13713;52.552;13.204;2023-07-16T13:06:09;26.60;57.70
25906;DHT22;13713;52.552;13.204;2023-07-16T13:08:34;26.60;57.70
25906;DHT22;13713;52.552;13.204;2023-07-16T13:11:00;26.60;57.70
25906;DHT22;13713;52.552;13.204;2023-07-16T13:13:26;26.60;57.70
25906;DHT22;13713;52.552;13.204;2023-07-16T13:15:51;26.60;57.60
25906;DHT22;13713;52.552;13.204;2023-07-16T13:18:17;26.60;57.50
25906;DHT22;13713;52.552;13.204;2023-07-16T13:20:43;26.60;58.10
25906;DHT22;13713;52.552;13.204;2023-07-16T13:23:09;26.60;57.50
25906;DHT22;13713;52.552;13.204;2023-07-16T13:25:35;26.60;57.50
25906;DHT22;13713;52.552;13.204;2023-07-16T13:28:02;26.60;57.40
25906;DHT22;13713;52.552;13.204;2023-07-16T13:30:28;26.60;57.40
25906;DHT22;13713;52.552;13.204;2023-07-16T13:32:54;26.60;57.30
25906;DHT22;13713;52.552;13.204;2023-07-16T13:35:24;26.70;57.40
25906;DHT22;13713;52.552;13.204;2023-07-16T13:37:50;26.60;57.40
25906;DHT22;13713;52.552;13.204;2023-07-16T13:40:17;26.60;57.30
25906;DHT22;13713;52.552;13.204;2023-07-16T13:42:45;26.60;57.30
25906;DHT22;13713;52.552;13.204;2023-07-16T13:45:12;26.60;57.20
25906;DHT22;13713;52.552;13.204;2023-07-16T13:47:37;26.60;57.20
25906;DHT22;13713;52.552;13.204;2023-07-16T13:50:03;26.60;57.20
25906;DHT22;13713;52.552;13.204;2023-07-16T13:52:29;26.60;57.10
25906;DHT22;13713;52.552;13.204;2023-07-16T13:54:55;26.60;57.00
25906;DHT22;13713;52.552;13.204;2023-07-16T13:57:20;26.60;56.80
25906;DHT22;13713;52.552;13.204;2023-07-16T13:59:46;26.60;56.50
25906;DHT22;13713;52.552;13.204;2023-07-16T14:02:12;26.60;56.40
25906;DHT22;13713;52.552;13.204;2023-07-16T14:04:37;26.60;56.30
25906;DHT22;13713;52.552;13.204;2023-07-16T14:07:03;26.60;56.10
25906;DHT22;13713;52.552;13.204;2023-07-16T14:09:29;26.60;55.70
25906;DHT22;13713;52.552;13.204;2023-07-16T14:11:54;26.60;55.70
25906;DHT22;13713;52.552;13.204;2023-07-16T14:14:21;26.50;55.30
25906;DHT22;13713;52.552;13.204;2023-07-16T14:16:46;26.50;55.30
25906;DHT22;13713;52.552;13.204;2023-07-16T14:19:12;26.60;55.40
25906;DHT22;13713;52.552;13.204;2023-07-16T14:21:38;26.60;55.30
25906;DHT22;13713;52.552;13.204;2023-07-16T14:24:04;26.50;55.10
25906;DHT22;13713;52.552;13.204;2023-07-16T14:26:30;26.50;54.90
25906;DHT22;13713;52.552;13.204;2023-07-16T14:28:55;26.50;54.80
25906;DHT22;13713;52.552;13.204;2023-07-16T14:31:21;26.50;54.70
25906;DHT22;13713;52.552;13.204;2023-07-16T14:33:47;26.60;54.70
25906;DHT22;13713;52.552;13.204;2023-07-16T14:36:12;26.60;55.20
25906;DHT22;13713;52.552;13.204;2023-07-16T14:38:38;26.50;54.30
25906;DHT22;13713;52.552;13.204;2023-07-16T14:41:04;26.60;54.50
25906;DHT22;13713;52.552;13.204;2023-07-16T14:43:32;26.50;54.20
25906;DHT22;13713;52.552;13.204;2023-07-16T14:45:57;26.50;54.10
25906;DHT22;13713;52.552;13.204;2023-07-16T14:48:23;26.50;54.20
25906;DHT22;13713;52.552;13.204;2023-07-16T14:50:49;26.50;54.10
25906;DHT22;13713;52.552;13.204;2023-07-16T14:53:15;26.60;54.10
25906;DHT22;13713;52.552;13.204;2023-07-16T14:55:45;26.50;54.00
25906;DHT22;13713;52.552;13.204;2023-07-16T14:58:11;26.50;54.00
25906;DHT22;13713;52.552;13.204;2023-07-16T15:00:37;26.50;53.90
25906;DHT22;13713;52.552;13.204;2023-07-16T15:03:02;26.60;53.90
25906;DHT22;13713;52.552;13.204;2023-07-16T15:05:29;26.50;53.80
25906;DHT22;13713;52.552;13.204;2023-07-16T15:07:55;26.60;53.90
25906;DHT22;13713;52.552;13.204;2023-07-16T15:10:21;26.50;53.70
25906;DHT22;13713;52.552;13.204;2023-07-16T15:12:46;26.50;53.70
25906;DHT22;13713;52.552;13.204;2023-07-16T15:15:12;26.60;53.80
25906;DHT22;13713;52.552;13.204;2023-07-16T15:17:38;26.60;53.80
25906;DHT22;13713;52.552;13.204;2023-07-16T15:20:04;26.50;53.70
25906;DHT22;13713;52.552;13.204;2023-07-16T15:22:30;26.60;53.70